Chestnut Hill, North Carolina
Current Conditions -  °F | °C
As of 1:15 PM on Sunday 25 Jan 2015 (Local Time) from KGEV Reporting Station
Clear Clear  
Wind Chill: 44°   Ceiling: Unl
Heat Index: 47°   Visibility: 10mi
Dew Point: 22°   Wind: 7mph
Humidity: 37%   Direction: 150°SSE
Pressure: 29.75"   Gusts: NA
Location:  36.484°N, 81.3801°W
Report Text: KGEV 251815Z AUTO 15006KT 10SM CLR 08/M06 A2975 RMK AO2 T00831056
Loading
Personal Weather Stations






























Interactive Weather Map New forecast layout! Learn more

10-Day Weather Forecast

Advertisements
Track Severe Weather on mobile